首页
METAR-TAF:

METAR-TAF

机场 :

鹿特丹海牙机场

鹿特丹, 荷兰

纬度: 51-57N, 经度: 004-27E, 海拔: -5米

当前天气观测

该预报发布于26分钟前的18:25 UTC
风速6节,风向西,在西南西北之间变化
温度 23°C
湿度 61%
气压 1022 hPa
能见度10公里或以上

METAR: EHRD 221825Z AUTO 27006KT 230V310 9999 NCD 23/15 Q1022 NOSIG

时间: 20:51 (18:51 UTC)

预报

该预报发布于1小时和58分钟前的16:53 UTC
预报有效从22日的 18点(UTC)到 23日的 24点(UTC)
风速10节,风向西转西南
能见度10公里或以上
1500米以下无云,无积雨云
成为
从 22日的 18点(UTC)到 22日的 21点(UTC)
风速5节,风向
成为
从 23日的 11点(UTC)到 23日的 14点(UTC)
风速3节,风向多变
成为
从 23日的 16点(UTC)到 23日的 19点(UTC)
风速8节,风向东转东北

TAF: EHRD 221653Z 2218/2324 24010KT CAVOK BECMG 2218/2221 19005KT BECMG 2311/2314 VRB03KT BECMG 2316/2319 07008KT

超过4000个机场的气象观测和天气预报(METAR&TAF报告)。

可查询的气象台以黄色和红色小点在地图上表示。

将鼠标移到小点上方,可查看气象台名称。

然后点击查看天气观测和预报。

如需切换地图:点击带黑十字的绿色按钮放大地图;点击带横线的绿色按钮缩小地图;或者点击绿色箭头查看邻近地区的地图。


METAR-TAF: